Portada
METAR-TAF:

METAR-TAF

Aeroports :

Base aèria

Khamis Mushayt, Aràbia Saudita

latitud: 18-18N, longitud: 042-48E, altitud: 2066 m

Observació

L'informe es va fer fa 1 hora i 6 minuts, a les 18:00 UTC
Vent 10 kt del Nord-Est
Temperatura 27°C
Humitat 18%
Pressió 1021 hPa
Visibilitat 10 km o més
sense núvols per sota de 1500 mi sense presència de cumulonimbus.

METAR: OEKM 021800Z 05010KT CAVOK 27/01 Q1021 NOSIG

Hora: 22:06 (19:06 UTC)

Pronòstic

L'informe es va fer fa 8 hores i 6 minuts, a les 11:00 UTC
Pronòstic vàlid del 02 a les 12 UTC al 03 a les 18 UTC
Vent 14 kt del Nord-Est
Visibilitat 10 km o més
Escasses núvols a una alçada de 2000 ft
Evolucionant progressivament
l' 02 a les 16 UTC al 02 a les 18 UTC
Vent 3 kt amb direcció variable

TAF: OEKM 021100Z 0212/0318 04014KT 9999 FEW020 BECMG 0216/0218 VRB03KT

Observacions i pronòstics meteorològics de més de 4000 aeroports (METAR i TAF).

Les estacions disponibles són els punts grocs i vermells al mapa.

Posi el ratolí al punt desitjat per veure el nom de l'estació.

Feu clic per veure les observacions i els pronòstics meteorològics.

Per canviar el mapa: feu clic els botons verds amb una creu de color negre per apropar; al botó verd amb un guió per allunyar la imatge; o en les fletxes verdes per a mapes adjacents.


METAR-TAF: